Proekt-1 — UBPM2 — position and weather

sailwx.info

Track history (hours):
 
Tides and Currents Weather Stations Pressure Air Temp Water Temp Dewpoint Dewpoint Depression Visibility Wind Speed Wind Dir Waves Ship Positions

Proekt-1

Last reported at 2018-Apr-22 02:29 UTC. Time now 2018-Apr-22 02:41 UTC.
Position N 69°56' E 017°18'.

Length 45 m; draft 6.5 m.

Type: Fishing. MMSI: 273374920.

Date/timePositionNaut miles runAvg speedWind from/ knotsBaromVisibWave heightAir tempDewpointWater temp
2018-Apr-22 02:29N 69°56' E 017°18'1 2.8
2018-Apr-22 02:00N 69°54' E 017°18'2 3.4
2018-Apr-22 01:30N 69°54' E 017°14'2 3.8
2018-Apr-22 01:00N 69°55' E 017°09'1 1.6
2018-Apr-22 00:30N 69°55' E 017°08'2 3.6
2018-Apr-22 00:00N 69°55' E 017°13'1 1.8
2018-Apr-21 23:29N 69°55' E 017°10'2 3.7
2018-Apr-21 23:00N 69°55' E 017°05'1 2.7
2018-Apr-21 22:30N 69°56' E 017°07'2 3.9
2018-Apr-21 21:59N 69°56' E 017°13'2 4.0
2018-Apr-21 21:30N 69°56' E 017°18'1 2.7
2018-Apr-21 21:00N 69°54' E 017°18'1 1.7
2018-Apr-21 20:29N 69°55' E 017°16'2 3.6
2018-Apr-21 20:00N 69°56' E 017°20'1 2.4
2018-Apr-21 19:30N 69°55' E 017°17'2 3.6
2018-Apr-21 18:59N 69°56' E 017°11'2 3.8
2018-Apr-21 18:30N 69°55' E 017°06'4 8.2
2018-Apr-21 18:00N 69°53' E 016°57'5 9.4
2018-Apr-21 17:30N 69°50' E 016°47'5 9.3
2018-Apr-21 17:00N 69°47' E 016°36'5 9.4
2018-Apr-21 16:30N 69°44' E 016°25'5 9.4
2018-Apr-21 16:00N 69°41' E 016°14'1 1.0
2018-Apr-21 15:30N 69°41' E 016°14'1 2.0
2018-Apr-21 15:00N 69°42' E 016°15'2 3.6
2018-Apr-21 14:30N 69°41' E 016°09'2 4.0
2018-Apr-21 14:00N 69°39' E 016°12'1 2.4
2018-Apr-21 13:30N 69°38' E 016°13'2 3.5
2018-Apr-21 12:59N 69°40' E 016°10'2 3.5
2018-Apr-21 12:30N 69°41' E 016°07'2 3.8
2018-Apr-21 12:00N 69°40' E 016°10'2 3.7
2018-Apr-21 11:29N 69°38' E 016°10'2 3.5
2018-Apr-21 11:00N 69°38' E 016°15'2 3.7
2018-Apr-21 10:30N 69°39' E 016°13'2 3.4
2018-Apr-21 10:00N 69°41' E 016°13'2 3.0
2018-Apr-21 09:30N 69°42' E 016°11'1 1.6
2018-Apr-21 09:00N 69°43' E 016°09'2 3.6
2018-Apr-21 08:29N 69°41' E 016°12'2 3.6
2018-Apr-21 08:00N 69°40' E 016°16'2 3.9
2018-Apr-21 07:30N 69°39' E 016°21'2 3.8
2018-Apr-21 07:00N 69°38' E 016°26'1 2.5
2018-Apr-21 06:29N 69°37' E 016°24'2 3.3
2018-Apr-21 06:00N 69°37' E 016°19'2 3.8
2018-Apr-21 05:30N 69°39' E 016°17'1 2.1
2018-Apr-21 04:59N 69°40' E 016°18'1 3.2
2018-Apr-21 04:30N 69°40' E 016°14'1 1.4
2018-Apr-21 04:00N 69°40' E 016°16'2 3.2
2018-Apr-21 03:29N 69°40' E 016°20'2 3.0
2018-Apr-21 02:59N 69°40' E 016°24'1 2.9
2018-Apr-21 02:30N 69°40' E 016°20'2 3.3
2018-Apr-21 02:00N 69°42' E 016°22'2 3.3
2018-Apr-21 01:30N 69°43' E 016°24'2 3.3
2018-Apr-21 01:00N 69°45' E 016°25'2 3.5
2018-Apr-21 00:30N 69°46' E 016°26'2 3.8
2018-Apr-21 00:00N 69°48' E 016°28'2 3.3
2018-Apr-20 23:30N 69°50' E 016°29'1 1.8
2018-Apr-20 23:00N 69°49' E 016°28'5 9.7
2018-Apr-20 22:30N 69°45' E 016°20'3 6.9
2018-Apr-20 22:00N 69°42' E 016°14'2 3.5
2018-Apr-20 21:29N 69°41' E 016°13'1 2.9
2018-Apr-20 21:00N 69°39' E 016°13'2 3.4
2018-Apr-20 20:30N 69°41' E 016°14'1 1.7
2018-Apr-20 19:59N 69°41' E 016°12'2 3.5
2018-Apr-20 19:30N 69°40' E 016°14'1 1.1
2018-Apr-20 19:00N 69°40' E 016°16'1 2.9
2018-Apr-20 18:30N 69°41' E 016°13'2 3.5
2018-Apr-20 18:00N 69°40' E 016°17'2 3.6
2018-Apr-20 17:30N 69°39' E 016°22'2 3.8
2018-Apr-20 16:59N 69°38' E 016°26'2 3.8
2018-Apr-20 16:30N 69°37' E 016°21'1 3.0
2018-Apr-20 16:00N 69°38' E 016°18'2 4.7
2018-Apr-20 15:30N 69°40' E 016°19'1 1.8
2018-Apr-20 14:59N 69°41' E 016°19'2 3.0
2018-Apr-20 14:29N 69°42' E 016°15'1 2.9
2018-Apr-20 13:59N 69°42' E 016°11'2 3.3
2018-Apr-20 13:30N 69°42' E 016°16'2 3.1
2018-Apr-20 12:59N 69°42' E 016°20'1 3.1
2018-Apr-20 12:30N 69°42' E 016°25'0 0.7
2018-Apr-20 12:00N 69°42' E 016°26'1 2.6
2018-Apr-20 11:30N 69°42' E 016°22'1 2.8
2018-Apr-20 11:00N 69°41' E 016°18'2 3.1
2018-Apr-20 10:30N 69°41' E 016°14'2 3.3
2018-Apr-20 10:00N 69°40' E 016°10'2 3.5
2018-Apr-20 09:30N 69°38' E 016°11'2 3.5
2018-Apr-20 09:00N 69°37' E 016°14'2 3.3
2018-Apr-20 08:30N 69°39' E 016°15'2 3.7
2018-Apr-20 08:00N 69°40' E 016°12'1 2.9
2018-Apr-20 07:30N 69°41' E 016°13'2 3.7
2018-Apr-20 07:00N 69°40' E 016°17'2 3.6
2018-Apr-20 06:30N 69°39' E 016°21'2 3.5
2018-Apr-20 05:59N 69°38' E 016°26'1 2.6
2018-Apr-20 05:30N 69°37' E 016°24'2 3.4
2018-Apr-20 04:59N 69°37' E 016°19'2 3.8
2018-Apr-20 04:30N 69°39' E 016°19'2 4.8
2018-Apr-20 03:59N 69°39' E 016°26'1 2.9
2018-Apr-20 03:30N 69°38' E 016°26'2 3.7
2018-Apr-20 03:00N 69°37' E 016°21'1 2.3
2018-Apr-20 02:30N 69°37' E 016°19'2 3.5
2018-Apr-20 02:00N 69°38' E 016°23'1 2.6
2018-Apr-20 01:30N 69°38' E 016°26'2 3.7
2018-Apr-20 00:59N 69°37' E 016°21'1 2.4
2018-Apr-20 00:30N 69°38' E 016°18'2 3.2
2018-Apr-20 00:00N 69°39' E 016°22'2 3.7
2018-Apr-19 23:30N 69°38' E 016°27'2 3.7
2018-Apr-19 23:00N 69°37' E 016°22'2 3.1
2018-Apr-19 22:30N 69°38' E 016°18'2 3.9
2018-Apr-19 22:00N 69°39' E 016°15'4 7.2
2018-Apr-19 21:30N 69°41' E 016°06'0 0.7
2018-Apr-19 21:00N 69°41' E 016°05'2 3.9
2018-Apr-19 20:30N 69°39' E 016°09'2 3.7
2018-Apr-19 20:00N 69°38' E 016°11'2 3.7
2018-Apr-19 19:30N 69°36' E 016°14'1 2.8
2018-Apr-19 19:00N 69°37' E 016°12'2 3.6
2018-Apr-19 18:30N 69°39' E 016°09'2 3.5
2018-Apr-19 18:00N 69°40' E 016°07'1 1.1
2018-Apr-19 17:30N 69°40' E 016°07'2 3.9
2018-Apr-19 16:59N 69°39' E 016°11'1 2.3
2018-Apr-19 16:30N 69°40' E 016°12'2 3.2
2018-Apr-19 16:00N 69°41' E 016°08'2 3.1
2018-Apr-19 15:30N 69°42' E 016°05'3 4.9
2018-Apr-19 15:00N 69°42' E 016°12'1 2.6
2018-Apr-19 14:30N 69°42' E 016°16'2 4.0
2018-Apr-19 13:59N 69°42' E 016°10'1 3.0
2018-Apr-19 13:30N 69°42' E 016°14'2 3.2
2018-Apr-19 13:00N 69°42' E 016°19'0 0.2
2018-Apr-19 12:30N 69°42' E 016°19'2 3.2
2018-Apr-19 12:00N 69°42' E 016°14'0 0.9
2018-Apr-19 11:30N 69°42' E 016°13'2 3.6
2018-Apr-19 11:00N 69°42' E 016°18'1 2.8
2018-Apr-19 10:30N 69°42' E 016°22'2 3.0
2018-Apr-19 09:59N 69°41' E 016°19'2 3.6
2018-Apr-19 09:30N 69°40' E 016°17'3 5.1
2018-Apr-19 09:00N 69°39' E 016°10'1 2.0
2018-Apr-19 08:30N 69°38' E 016°11'2 3.7
2018-Apr-19 07:59N 69°37' E 016°13'1 1.9
2018-Apr-19 07:30N 69°37' E 016°14'2 3.3
2018-Apr-19 07:00N 69°39' E 016°15'2 3.5
2018-Apr-19 06:30N 69°40' E 016°11'2 4.1
2018-Apr-19 06:00N 69°40' E 016°05'2 3.6
2018-Apr-19 05:30N 69°39' E 016°10'2 4.1
2018-Apr-19 05:00N 69°38' E 016°15'2 3.4
2018-Apr-19 04:30N 69°39' E 016°12'2 3.9
2018-Apr-19 04:00N 69°41' E 016°10'1 1.4
2018-Apr-19 03:30N 69°42' E 016°08'2 3.1
2018-Apr-19 03:00N 69°42' E 016°12'1 1.8
2018-Apr-19 02:30N 69°43' E 016°15'2 3.7
2018-Apr-19 02:00N 69°42' E 016°10'1 2.8
2018-Apr-19 01:30N 69°41' E 016°06'1 1.6
2018-Apr-19 00:59N 69°41' E 016°07'2 3.7
2018-Apr-19 00:30N 69°39' E 016°10'2 3.1
2018-Apr-18 23:59N 69°38' E 016°13'2 3.6
2018-Apr-18 23:30N 69°40' E 016°10'1 2.0
2018-Apr-18 23:00N 69°40' E 016°08'2 3.7
2018-Apr-18 22:30N 69°39' E 016°12'1 1.6
2018-Apr-18 22:00N 69°39' E 016°14'2 3.5
2018-Apr-18 21:30N 69°40' E 016°11'2 3.5
2018-Apr-18 21:00N 69°42' E 016°11'2 4.0
2018-Apr-18 20:30N 69°42' E 016°17'1 1.1
2018-Apr-18 20:00N 69°42' E 016°16'2 3.7
2018-Apr-18 19:30N 69°42' E 016°21'2 3.4
2018-Apr-18 18:59N 69°42' E 016°26'2 3.5
2018-Apr-18 18:30N 69°42' E 016°31'1 2.7
2018-Apr-18 18:00N 69°42' E 016°27'2 4.0
2018-Apr-18 17:29N 69°42' E 016°21'2 4.0
2018-Apr-18 17:00N 69°42' E 016°15'2 3.5
2018-Apr-18 16:30N 69°42' E 016°10'1 2.9
2018-Apr-18 16:00N 69°40' E 016°13'1 2.1
2018-Apr-18 15:30N 69°40' E 016°10'1 2.3
2018-Apr-18 15:00N 69°41' E 016°10'2 4.0
2018-Apr-18 14:30N 69°40' E 016°14'1 1.7
2018-Apr-18 14:00N 69°39' E 016°13'2 3.5
2018-Apr-18 13:30N 69°40' E 016°09'1 2.6
2018-Apr-18 12:59N 69°41' E 016°09'1 3.0
2018-Apr-18 12:29N 69°42' E 016°12'3 6.1
2018-Apr-18 11:59N 69°42' E 016°21'2 4.3
2018-Apr-18 11:29N 69°42' E 016°27'0 0.3
2018-Apr-18 11:00N 69°42' E 016°27'2 4.7
2018-Apr-18 10:30N 69°42' E 016°20'3 5.1
2018-Apr-18 10:00N 69°43' E 016°13'1 2.4
2018-Apr-18 09:30N 69°43' E 016°16'2 3.2
2018-Apr-18 09:00N 69°42' E 016°21'2 3.3
2018-Apr-18 08:30N 69°42' E 016°25'2 3.4
2018-Apr-18 08:00N 69°41' E 016°30'0 0.3
2018-Apr-18 07:30N 69°41' E 016°30'2 3.1
2018-Apr-18 07:00N 69°42' E 016°26'2 3.1
2018-Apr-18 06:30N 69°42' E 016°22'1 2.9
2018-Apr-18 05:59N 69°42' E 016°17'1 2.7
2018-Apr-18 05:30N 69°42' E 016°14'0 0.0
2018-Apr-18 05:00N 69°42' E 016°14'2 3.5
2018-Apr-18 04:30N 69°42' E 016°19'2 3.3
2018-Apr-18 04:00N 69°42' E 016°23'2 4.4
2018-Apr-18 03:30N 69°42' E 016°17'1 1.5
2018-Apr-18 03:00N 69°42' E 016°15'2 3.5
2018-Apr-18 02:30N 69°42' E 016°20'2 3.4
2018-Apr-18 02:00N 69°42' E 016°25'0 0.2
2018-Apr-18 01:29N 69°42' E 016°24'2 3.6
2018-Apr-18 00:59N 69°42' E 016°19'2 3.5
2018-Apr-18 00:29N 69°42' E 016°14'1 3.0
2018-Apr-18 00:00N 69°42' E 016°18'2 3.6
2018-Apr-17 23:30N 69°42' E 016°23'0 0.7
2018-Apr-17 23:00N 69°42' E 016°23'2 4.0
2018-Apr-17 22:28N 69°42' E 016°17'1 2.9
2018-Apr-17 22:00N 69°41' E 016°15'2 3.8
2018-Apr-17 21:30N 69°40' E 016°20'2 3.8
2018-Apr-17 21:00N 69°40' E 016°26'1 1.4
2018-Apr-17 20:30N 69°40' E 016°28'1 1.6
2018-Apr-17 20:00N 69°40' E 016°30'1 1.6
2018-Apr-17 19:30N 69°40' E 016°32'1 2.6
2018-Apr-17 19:00N 69°40' E 016°28'1 2.7
2018-Apr-17 18:30N 69°40' E 016°25'1 3.0
2018-Apr-17 18:00N 69°38' E 016°26'1 2.7
2018-Apr-17 17:30N 69°37' E 016°24'2 3.3
2018-Apr-17 16:59N 69°37' E 016°19'2 3.5
2018-Apr-17 16:30N 69°38' E 016°23'1 2.5
2018-Apr-17 16:00N 69°38' E 016°26'2 3.9
2018-Apr-17 15:30N 69°37' E 016°21'1 2.5
2018-Apr-17 15:00N 69°38' E 016°20'2 3.8
2018-Apr-17 14:30N 69°38' E 016°26'1 2.5
2018-Apr-17 13:59N 69°37' E 016°23'1 2.6
2018-Apr-17 13:30N 69°38' E 016°20'2 4.0
2018-Apr-17 13:00N 69°38' E 016°25'1 1.8
2018-Apr-17 12:30N 69°37' E 016°24'2 3.6
2018-Apr-17 12:00N 69°37' E 016°19'2 3.4
2018-Apr-17 11:30N 69°39' E 016°21'2 3.3
2018-Apr-17 10:59N 69°38' E 016°26'1 2.7
2018-Apr-17 10:30N 69°37' E 016°23'2 3.1
2018-Apr-17 10:00N 69°37' E 016°19'2 3.1
2018-Apr-17 09:30N 69°38' E 016°22'2 3.0
2018-Apr-17 09:00N 69°38' E 016°27'2 3.7
2018-Apr-17 08:30N 69°37' E 016°22'1 2.8
2018-Apr-17 08:00N 69°38' E 016°18'2 4.1
2018-Apr-17 07:30N 69°39' E 016°23'1 2.7
2018-Apr-17 06:59N 69°38' E 016°27'2 3.6
2018-Apr-17 06:30N 69°37' E 016°23'2 3.0
2018-Apr-17 06:00N 69°37' E 016°19'1 2.8
2018-Apr-17 05:29N 69°38' E 016°22'2 3.6
2018-Apr-17 05:00N 69°38' E 016°27'2 3.6
2018-Apr-17 04:30N 69°37' E 016°22'1 2.6
2018-Apr-17 03:59N 69°38' E 016°19'2 3.6
2018-Apr-17 03:28N 69°38' E 016°25'1 2.2
2018-Apr-17 03:00N 69°37' E 016°24'2 3.2
2018-Apr-17 02:30N 69°37' E 016°19'2 3.1
2018-Apr-17 02:00N 69°38' E 016°23'1 2.7
2018-Apr-17 01:29N 69°38' E 016°26'2 3.9
2018-Apr-17 01:00N 69°37' E 016°21'1 2.3
2018-Apr-17 00:29N 69°38' E 016°18'1 2.8
2018-Apr-16 23:59N 69°38' E 016°22'2 3.8
2018-Apr-16 23:30N 69°38' E 016°27'2 3.9
2018-Apr-16 23:00N 69°37' E 016°22'2 3.7
2018-Apr-16 22:30N 69°38' E 016°17'2 3.8
2018-Apr-16 22:00N 69°39' E 016°14'2 3.7
2018-Apr-16 21:30N 69°41' E 016°13'2 3.2
2018-Apr-16 21:00N 69°40' E 016°17'2 4.3
2018-Apr-16 20:30N 69°40' E 016°23'1 1.8
2018-Apr-16 20:00N 69°40' E 016°21'1 2.6
2018-Apr-16 19:30N 69°40' E 016°17'1 2.6
2018-Apr-16 19:00N 69°40' E 016°13'1 1.3
2018-Apr-16 18:30N 69°40' E 016°15'1 1.6
2018-Apr-16 17:59N 69°40' E 016°16'1 2.1
2018-Apr-16 17:30N 69°40' E 016°14'1 1.9
2018-Apr-16 16:59N 69°41' E 016°13'1 2.5
2018-Apr-16 16:30N 69°42' E 016°14'2 3.5
2018-Apr-16 16:00N 69°41' E 016°11'1 2.3
2018-Apr-16 15:30N 69°42' E 016°12'1 2.4
2018-Apr-16 15:00N 69°43' E 016°13'0 0.9
2018-Apr-16 14:30N 69°43' E 016°14'1 2.6
2018-Apr-16 14:00N 69°42' E 016°14'1 2.2
2018-Apr-16 13:30N 69°41' E 016°16'1 2.2
2018-Apr-16 13:00N 69°42' E 016°14'1 2.1
2018-Apr-16 12:30N 69°43' E 016°12'2 3.9
2018-Apr-16 12:00N 69°41' E 016°13'2 3.9
2018-Apr-16 11:30N 69°39' E 016°18'2 3.6
2018-Apr-16 10:59N 69°39' E 016°23'2 3.5
2018-Apr-16 10:30N 69°38' E 016°27'2 3.8
2018-Apr-16 10:00N 69°37' E 016°22'2 3.3
2018-Apr-16 09:29N 69°38' E 016°18'2 3.4
2018-Apr-16 09:00N 69°39' E 016°22'1 2.8
2018-Apr-16 08:30N 69°40' E 016°21'1 1.3
2018-Apr-16 08:00N 69°40' E 016°23'1 1.2
2018-Apr-16 07:30N 69°40' E 016°24'1 2.9
2018-Apr-16 07:00N 69°39' E 016°26'1 2.2
2018-Apr-16 06:30N 69°38' E 016°26'2 3.9
2018-Apr-16 06:00N 69°37' E 016°20'1 2.7
2018-Apr-16 05:30N 69°38' E 016°21'2 3.8
2018-Apr-16 04:59N 69°38' E 016°27'2 3.5
2018-Apr-16 04:30N 69°37' E 016°23'2 3.1
2018-Apr-16 04:00N 69°38' E 016°19'1 2.8
2018-Apr-16 03:29N 69°39' E 016°19'2 4.3
2018-Apr-16 03:00N 69°38' E 016°25'1 2.1
2018-Apr-16 02:30N 69°37' E 016°25'2 3.5
2018-Apr-16 02:00N 69°37' E 016°20'2 3.4
2018-Apr-16 01:30N 69°39' E 016°18'1 2.7
2018-Apr-16 00:59N 69°40' E 016°20'2 4.5
2018-Apr-16 00:30N 69°39' E 016°25'1 2.6
2018-Apr-16 00:00N 69°37' E 016°24'2 3.6
2018-Apr-15 23:30N 69°37' E 016°19'2 3.1
2018-Apr-15 23:00N 69°38' E 016°23'1 2.7
2018-Apr-15 22:29N 69°38' E 016°26'2 4.0
2018-Apr-15 22:00N 69°37' E 016°21'2 3.5
2018-Apr-15 21:30N 69°38' E 016°18'2 3.2
2018-Apr-15 21:00N 69°39' E 016°22'2 3.3
2018-Apr-15 20:27N 69°38' E 016°27'2 4.0
2018-Apr-15 19:59N 69°37' E 016°22'2 3.4
2018-Apr-15 19:30N 69°38' E 016°18'2 4.2
2018-Apr-15 19:00N 69°40' E 016°17'1 1.0
2018-Apr-15 18:30N 69°40' E 016°17'0 0.6
2018-Apr-15 18:00N 69°41' E 016°17'2 3.2
2018-Apr-15 17:28N 69°40' E 016°22'1 3.1
2018-Apr-15 17:00N 69°39' E 016°24'1 2.4
2018-Apr-15 16:30N 69°38' E 016°26'2 4.1
2018-Apr-15 16:00N 69°37' E 016°20'2 3.6
2018-Apr-15 15:29N 69°39' E 016°17'1 1.9
2018-Apr-15 15:00N 69°39' E 016°18'2 4.2
2018-Apr-15 14:30N 69°39' E 016°24'1 2.4
2018-Apr-15 14:00N 69°38' E 016°25'2 3.7
2018-Apr-15 13:28N 69°37' E 016°20'2 3.6
2018-Apr-15 13:00N 69°39' E 016°17'2 3.3
2018-Apr-15 12:30N 69°40' E 016°18'2 4.2
2018-Apr-15 12:00N 69°39' E 016°23'2 3.0
2018-Apr-15 11:30N 69°38' E 016°26'2 3.3
2018-Apr-15 10:59N 69°37' E 016°23'2 3.3
2018-Apr-15 10:30N 69°38' E 016°18'2 3.0
2018-Apr-15 09:58N 69°39' E 016°19'2 3.8
2018-Apr-15 09:30N 69°38' E 016°24'1 2.4
2018-Apr-15 09:00N 69°38' E 016°26'2 3.8
2018-Apr-15 08:30N 69°37' E 016°21'2 3.6
2018-Apr-15 08:00N 69°38' E 016°17'2 3.1
2018-Apr-15 07:30N 69°39' E 016°20'2 3.7
2018-Apr-15 07:00N 69°39' E 016°25'2 3.3
2018-Apr-15 06:29N 69°37' E 016°21'510.6
2018-Apr-15 05:59N 69°35' E 016°07'511.3
2018-Apr-15 05:30N 69°33' E 015°53'510.9
2018-Apr-15 05:00N 69°30' E 015°40'510.5
2018-Apr-15 04:30N 69°27' E 015°28'510.1
2018-Apr-15 04:00N 69°24' E 015°17'510.6
2018-Apr-15 03:30N 69°20' E 015°05'510.6
2018-Apr-15 03:00N 69°17' E 014°53'611.1
2018-Apr-15 02:29N 69°13' E 014°41'2 3.1
2018-Apr-15 02:00N 69°12' E 014°38'2 4.4
2018-Apr-15 01:30N 69°11' E 014°33'2 4.4
2018-Apr-15 01:00N 69°09' E 014°28'2 4.2
2018-Apr-15 00:30N 69°07' E 014°26'2 4.2
2018-Apr-15 00:00N 69°06' E 014°21'2 4.4
2018-Apr-14 23:30N 69°05' E 014°17'1 2.6
2018-Apr-14 23:00N 69°03' E 014°17'2 3.3
2018-Apr-14 22:29N 69°05' E 014°18'2 3.3
2018-Apr-14 22:00N 69°06' E 014°20'2 3.3
2018-Apr-14 21:30N 69°07' E 014°24'2 3.3
2018-Apr-14 21:00N 69°09' E 014°26'2 3.3
2018-Apr-14 20:30N 69°10' E 014°29'0 0.6
2018-Apr-14 19:59N 69°10' E 014°29'2 3.4
2018-Apr-14 19:30N 69°08' E 014°26'2 4.5
2018-Apr-14 19:00N 69°07' E 014°21'2 4.5
2018-Apr-14 18:29N 69°05' E 014°18'2 4.4
2018-Apr-14 18:00N 69°03' E 014°14'1 1.4
2018-Apr-14 17:30N 69°03' E 014°16'2 3.2
2018-Apr-14 16:59N 69°04' E 014°17'2 3.3
2018-Apr-14 16:30N 69°06' E 014°19'2 3.2
2018-Apr-14 15:58N 69°07' E 014°22'2 3.3
2018-Apr-14 15:29N 69°08' E 014°25'1 2.2
2018-Apr-14 15:00N 69°07' E 014°23'2 4.4
2018-Apr-14 14:30N 69°06' E 014°20'2 3.6
2018-Apr-14 14:00N 69°04' E 014°17'2 4.4
2018-Apr-14 13:30N 69°02' E 014°15'1 2.1
2018-Apr-14 13:00N 69°02' E 014°12'2 3.5
2018-Apr-14 12:29N 69°04' E 014°15'2 3.3
2018-Apr-14 12:00N 69°05' E 014°19'2 3.3
2018-Apr-14 11:30N 69°06' E 014°21'1 1.4
2018-Apr-14 11:00N 69°06' E 014°22'2 4.3
2018-Apr-14 10:30N 69°05' E 014°18'4 7.0
2018-Apr-14 10:00N 69°02' E 014°11'510.8
2018-Apr-14 09:30N 68°58' E 014°01'510.7
2018-Apr-14 09:00N 68°55' E 013°49'611.0
2018-Apr-14 08:30N 68°51' E 013°39'610.9
2018-Apr-14 07:59N 68°46' E 013°32'510.7
2018-Apr-14 07:30N 68°41' E 013°26'510.6
2018-Apr-14 07:00N 68°36' E 013°21'510.4
2018-Apr-14 06:29N 68°31' E 013°15'1 2.3
2018-Apr-14 06:00N 68°30' E 013°13'1 2.1
2018-Apr-14 05:30N 68°30' E 013°16'1 2.4
2018-Apr-14 05:00N 68°31' E 013°14'3 6.5
2018-Apr-14 04:30N 68°29' E 013°07'3 5.7
2018-Apr-14 04:00N 68°27' E 013°01'3 5.7
2018-Apr-14 03:30N 68°25' E 012°56'3 5.7
2018-Apr-14 03:00N 68°23' E 012°50'3 5.9
2018-Apr-14 02:30N 68°21' E 012°44'3 6.1
2018-Apr-14 01:58N 68°19' E 012°38'3 7.3
2018-Apr-14 01:30N 68°16' E 012°31'4 7.9
2018-Apr-14 01:00N 68°13' E 012°25'4 7.9
2018-Apr-14 00:30N 68°10' E 012°18'309 9.8
2018-Apr-12 17:01N 63°28' E 007°06'011.6
2018-Apr-12 17:00N 63°28' E 007°06'1 2.9
2018-Apr-12 16:30N 63°27' E 007°05'4 7.3
2018-Apr-12 16:00N 63°23' E 007°03'510.6
2018-Apr-12 15:29N 63°18' E 006°59'510.6
2018-Apr-12 14:59N 63°13' E 006°55'510.4
2018-Apr-12 14:30N 63°08' E 006°52'5 9.9
2018-Apr-12 14:00N 63°03' E 006°49'510.0
2018-Apr-12 13:30N 62°59' E 006°44'5 9.6
2018-Apr-12 13:00N 62°54' E 006°45'510.7
2018-Apr-12 12:30N 62°50' E 006°39'510.8
2018-Apr-12 12:00N 62°45' E 006°33'510.6
2018-Apr-12 11:30N 62°40' E 006°28'4 7.5
2018-Apr-12 10:58N 62°36' E 006°27'0 0.0
2018-Apr-12 10:27N 62°36' E 006°27'0 0.0
2018-Apr-12 10:00N 62°36' E 006°27'0 0.0
2018-Apr-12 09:30N 62°36' E 006°27'0 0.0
2018-Apr-12 09:00N 62°36' E 006°27'0 0.0
2018-Apr-12 08:29N 62°36' E 006°27'0 0.0
2018-Apr-12 07:59N 62°36' E 006°27'0 0.0
2018-Apr-12 07:30N 62°36' E 006°27'0 0.0
2018-Apr-12 07:00N 62°36' E 006°27'0 0.0
2018-Apr-12 06:30N 62°36' E 006°27'0 0.0
2018-Apr-12 05:59N 62°36' E 006°27'0 0.0
2018-Apr-12 05:30N 62°36' E 006°27'1 2.3
2018-Apr-12 04:59N 62°37' E 006°25'510.1
2018-Apr-12 04:30N 62°35' E 006°15'510.3
2018-Apr-12 04:00N 62°31' E 006°09'5 9.7
2018-Apr-12 03:30N 62°27' E 006°02'2 4.9
2018-Apr-12 03:00N 62°27' E 005°57'1 2.0
2018-Apr-12 02:30N 62°27' E 005°55'  
Track history (hours):
 
Tides and Currents Weather Stations Pressure Air Temp Water Temp Dewpoint Dewpoint Depression Visibility Wind Speed Wind Dir Waves Ship Positions

Proekt-1

Last reported at 2018-Apr-22 02:29 UTC. Time now 2018-Apr-22 02:41 UTC.
Position N 69°56' E 017°18'.

Length 45 m; draft 6.5 m.

Type: Fishing. MMSI: 273374920.

Date/timePositionNaut miles runAvg speedWind from/ knotsBaromVisibWave heightAir tempDewpointWater temp
2018-Apr-22 02:29N 69°56' E 017°18'1 2.8
2018-Apr-22 02:00N 69°54' E 017°18'2 3.4
2018-Apr-22 01:30N 69°54' E 017°14'2 3.8
2018-Apr-22 01:00N 69°55' E 017°09'1 1.6
2018-Apr-22 00:30N 69°55' E 017°08'2 3.6
2018-Apr-22 00:00N 69°55' E 017°13'1 1.8
2018-Apr-21 23:29N 69°55' E 017°10'2 3.7
2018-Apr-21 23:00N 69°55' E 017°05'1 2.7
2018-Apr-21 22:30N 69°56' E 017°07'2 3.9
2018-Apr-21 21:59N 69°56' E 017°13'2 4.0
2018-Apr-21 21:30N 69°56' E 017°18'1 2.7
2018-Apr-21 21:00N 69°54' E 017°18'1 1.7
2018-Apr-21 20:29N 69°55' E 017°16'2 3.6
2018-Apr-21 20:00N 69°56' E 017°20'1 2.4
2018-Apr-21 19:30N 69°55' E 017°17'2 3.6
2018-Apr-21 18:59N 69°56' E 017°11'2 3.8
2018-Apr-21 18:30N 69°55' E 017°06'4 8.2
2018-Apr-21 18:00N 69°53' E 016°57'5 9.4
2018-Apr-21 17:30N 69°50' E 016°47'5 9.3
2018-Apr-21 17:00N 69°47' E 016°36'5 9.4
2018-Apr-21 16:30N 69°44' E 016°25'5 9.4
2018-Apr-21 16:00N 69°41' E 016°14'1 1.0
2018-Apr-21 15:30N 69°41' E 016°14'1 2.0
2018-Apr-21 15:00N 69°42' E 016°15'2 3.6
2018-Apr-21 14:30N 69°41' E 016°09'2 4.0
2018-Apr-21 14:00N 69°39' E 016°12'1 2.4
2018-Apr-21 13:30N 69°38' E 016°13'2 3.5
2018-Apr-21 12:59N 69°40' E 016°10'2 3.5
2018-Apr-21 12:30N 69°41' E 016°07'2 3.8
2018-Apr-21 12:00N 69°40' E 016°10'2 3.7
2018-Apr-21 11:29N 69°38' E 016°10'2 3.5
2018-Apr-21 11:00N 69°38' E 016°15'2 3.7
2018-Apr-21 10:30N 69°39' E 016°13'2 3.4
2018-Apr-21 10:00N 69°41' E 016°13'2 3.0
2018-Apr-21 09:30N 69°42' E 016°11'1 1.6
2018-Apr-21 09:00N 69°43' E 016°09'2 3.6
2018-Apr-21 08:29N 69°41' E 016°12'2 3.6
2018-Apr-21 08:00N 69°40' E 016°16'2 3.9
2018-Apr-21 07:30N 69°39' E 016°21'2 3.8
2018-Apr-21 07:00N 69°38' E 016°26'1 2.5
2018-Apr-21 06:29N 69°37' E 016°24'2 3.3
2018-Apr-21 06:00N 69°37' E 016°19'2 3.8
2018-Apr-21 05:30N 69°39' E 016°17'1 2.1
2018-Apr-21 04:59N 69°40' E 016°18'1 3.2
2018-Apr-21 04:30N 69°40' E 016°14'1 1.4
2018-Apr-21 04:00N 69°40' E 016°16'2 3.2
2018-Apr-21 03:29N 69°40' E 016°20'2 3.0
2018-Apr-21 02:59N 69°40' E 016°24'1 2.9
2018-Apr-21 02:30N 69°40' E 016°20'2 3.3
2018-Apr-21 02:00N 69°42' E 016°22'2 3.3
2018-Apr-21 01:30N 69°43' E 016°24'2 3.3
2018-Apr-21 01:00N 69°45' E 016°25'2 3.5
2018-Apr-21 00:30N 69°46' E 016°26'2 3.8
2018-Apr-21 00:00N 69°48' E 016°28'2 3.3
2018-Apr-20 23:30N 69°50' E 016°29'1 1.8
2018-Apr-20 23:00N 69°49' E 016°28'5 9.7
2018-Apr-20 22:30N 69°45' E 016°20'3 6.9
2018-Apr-20 22:00N 69°42' E 016°14'2 3.5
2018-Apr-20 21:29N 69°41' E 016°13'1 2.9
2018-Apr-20 21:00N 69°39' E 016°13'2 3.4
2018-Apr-20 20:30N 69°41' E 016°14'1 1.7
2018-Apr-20 19:59N 69°41' E 016°12'2 3.5
2018-Apr-20 19:30N 69°40' E 016°14'1 1.1
2018-Apr-20 19:00N 69°40' E 016°16'1 2.9
2018-Apr-20 18:30N 69°41' E 016°13'2 3.5
2018-Apr-20 18:00N 69°40' E 016°17'2 3.6
2018-Apr-20 17:30N 69°39' E 016°22'2 3.8
2018-Apr-20 16:59N 69°38' E 016°26'2 3.8
2018-Apr-20 16:30N 69°37' E 016°21'1 3.0
2018-Apr-20 16:00N 69°38' E 016°18'2 4.7
2018-Apr-20 15:30N 69°40' E 016°19'1 1.8
2018-Apr-20 14:59N 69°41' E 016°19'2 3.0
2018-Apr-20 14:29N 69°42' E 016°15'1 2.9
2018-Apr-20 13:59N 69°42' E 016°11'2 3.3
2018-Apr-20 13:30N 69°42' E 016°16'2 3.1
2018-Apr-20 12:59N 69°42' E 016°20'1 3.1
2018-Apr-20 12:30N 69°42' E 016°25'0 0.7
2018-Apr-20 12:00N 69°42' E 016°26'1 2.6
2018-Apr-20 11:30N 69°42' E 016°22'1 2.8
2018-Apr-20 11:00N 69°41' E 016°18'2 3.1
2018-Apr-20 10:30N 69°41' E 016°14'2 3.3
2018-Apr-20 10:00N 69°40' E 016°10'2 3.5
2018-Apr-20 09:30N 69°38' E 016°11'2 3.5
2018-Apr-20 09:00N 69°37' E 016°14'2 3.3
2018-Apr-20 08:30N 69°39' E 016°15'2 3.7
2018-Apr-20 08:00N 69°40' E 016°12'1 2.9
2018-Apr-20 07:30N 69°41' E 016°13'2 3.7
2018-Apr-20 07:00N 69°40' E 016°17'2 3.6
2018-Apr-20 06:30N 69°39' E 016°21'2 3.5
2018-Apr-20 05:59N 69°38' E 016°26'1 2.6
2018-Apr-20 05:30N 69°37' E 016°24'2 3.4
2018-Apr-20 04:59N 69°37' E 016°19'2 3.8
2018-Apr-20 04:30N 69°39' E 016°19'2 4.8
2018-Apr-20 03:59N 69°39' E 016°26'1 2.9
2018-Apr-20 03:30N 69°38' E 016°26'2 3.7
2018-Apr-20 03:00N 69°37' E 016°21'1 2.3
2018-Apr-20 02:30N 69°37' E 016°19'2 3.5
2018-Apr-20 02:00N 69°38' E 016°23'1 2.6
2018-Apr-20 01:30N 69°38' E 016°26'2 3.7
2018-Apr-20 00:59N 69°37' E 016°21'1 2.4
2018-Apr-20 00:30N 69°38' E 016°18'2 3.2
2018-Apr-20 00:00N 69°39' E 016°22'2 3.7
2018-Apr-19 23:30N 69°38' E 016°27'2 3.7
2018-Apr-19 23:00N 69°37' E 016°22'2 3.1
2018-Apr-19 22:30N 69°38' E 016°18'2 3.9
2018-Apr-19 22:00N 69°39' E 016°15'4 7.2
2018-Apr-19 21:30N 69°41' E 016°06'0 0.7
2018-Apr-19 21:00N 69°41' E 016°05'2 3.9
2018-Apr-19 20:30N 69°39' E 016°09'2 3.7
2018-Apr-19 20:00N 69°38' E 016°11'2 3.7
2018-Apr-19 19:30N 69°36' E 016°14'1 2.8
2018-Apr-19 19:00N 69°37' E 016°12'2 3.6
2018-Apr-19 18:30N 69°39' E 016°09'2 3.5
2018-Apr-19 18:00N 69°40' E 016°07'1 1.1
2018-Apr-19 17:30N 69°40' E 016°07'2 3.9
2018-Apr-19 16:59N 69°39' E 016°11'1 2.3
2018-Apr-19 16:30N 69°40' E 016°12'2 3.2
2018-Apr-19 16:00N 69°41' E 016°08'2 3.1
2018-Apr-19 15:30N 69°42' E 016°05'3 4.9
2018-Apr-19 15:00N 69°42' E 016°12'1 2.6
2018-Apr-19 14:30N 69°42' E 016°16'2 4.0
2018-Apr-19 13:59N 69°42' E 016°10'1 3.0
2018-Apr-19 13:30N 69°42' E 016°14'2 3.2
2018-Apr-19 13:00N 69°42' E 016°19'0 0.2
2018-Apr-19 12:30N 69°42' E 016°19'2 3.2
2018-Apr-19 12:00N 69°42' E 016°14'0 0.9
2018-Apr-19 11:30N 69°42' E 016°13'2 3.6
2018-Apr-19 11:00N 69°42' E 016°18'1 2.8
2018-Apr-19 10:30N 69°42' E 016°22'2 3.0
2018-Apr-19 09:59N 69°41' E 016°19'2 3.6
2018-Apr-19 09:30N 69°40' E 016°17'3 5.1
2018-Apr-19 09:00N 69°39' E 016°10'1 2.0
2018-Apr-19 08:30N 69°38' E 016°11'2 3.7
2018-Apr-19 07:59N 69°37' E 016°13'1 1.9
2018-Apr-19 07:30N 69°37' E 016°14'2 3.3
2018-Apr-19 07:00N 69°39' E 016°15'2 3.5
2018-Apr-19 06:30N 69°40' E 016°11'2 4.1
2018-Apr-19 06:00N 69°40' E 016°05'2 3.6
2018-Apr-19 05:30N 69°39' E 016°10'2 4.1
2018-Apr-19 05:00N 69°38' E 016°15'2 3.4
2018-Apr-19 04:30N 69°39' E 016°12'2 3.9
2018-Apr-19 04:00N 69°41' E 016°10'1 1.4
2018-Apr-19 03:30N 69°42' E 016°08'2 3.1
2018-Apr-19 03:00N 69°42' E 016°12'1 1.8
2018-Apr-19 02:30N 69°43' E 016°15'2 3.7
2018-Apr-19 02:00N 69°42' E 016°10'1 2.8
2018-Apr-19 01:30N 69°41' E 016°06'1 1.6
2018-Apr-19 00:59N 69°41' E 016°07'2 3.7
2018-Apr-19 00:30N 69°39' E 016°10'2 3.1
2018-Apr-18 23:59N 69°38' E 016°13'2 3.6
2018-Apr-18 23:30N 69°40' E 016°10'1 2.0
2018-Apr-18 23:00N 69°40' E 016°08'2 3.7
2018-Apr-18 22:30N 69°39' E 016°12'1 1.6
2018-Apr-18 22:00N 69°39' E 016°14'2 3.5
2018-Apr-18 21:30N 69°40' E 016°11'2 3.5
2018-Apr-18 21:00N 69°42' E 016°11'2 4.0
2018-Apr-18 20:30N 69°42' E 016°17'1 1.1
2018-Apr-18 20:00N 69°42' E 016°16'2 3.7
2018-Apr-18 19:30N 69°42' E 016°21'2 3.4
2018-Apr-18 18:59N 69°42' E 016°26'2 3.5
2018-Apr-18 18:30N 69°42' E 016°31'1 2.7
2018-Apr-18 18:00N 69°42' E 016°27'2 4.0
2018-Apr-18 17:29N 69°42' E 016°21'2 4.0
2018-Apr-18 17:00N 69°42' E 016°15'2 3.5
2018-Apr-18 16:30N 69°42' E 016°10'1 2.9
2018-Apr-18 16:00N 69°40' E 016°13'1 2.1
2018-Apr-18 15:30N 69°40' E 016°10'1 2.3
2018-Apr-18 15:00N 69°41' E 016°10'2 4.0
2018-Apr-18 14:30N 69°40' E 016°14'1 1.7
2018-Apr-18 14:00N 69°39' E 016°13'2 3.5
2018-Apr-18 13:30N 69°40' E 016°09'1 2.6
2018-Apr-18 12:59N 69°41' E 016°09'1 3.0
2018-Apr-18 12:29N 69°42' E 016°12'3 6.1
2018-Apr-18 11:59N 69°42' E 016°21'2 4.3
2018-Apr-18 11:29N 69°42' E 016°27'0 0.3
2018-Apr-18 11:00N 69°42' E 016°27'2 4.7
2018-Apr-18 10:30N 69°42' E 016°20'3 5.1
2018-Apr-18 10:00N 69°43' E 016°13'1 2.4
2018-Apr-18 09:30N 69°43' E 016°16'2 3.2
2018-Apr-18 09:00N 69°42' E 016°21'2 3.3
2018-Apr-18 08:30N 69°42' E 016°25'2 3.4
2018-Apr-18 08:00N 69°41' E 016°30'0 0.3
2018-Apr-18 07:30N 69°41' E 016°30'2 3.1
2018-Apr-18 07:00N 69°42' E 016°26'2 3.1
2018-Apr-18 06:30N 69°42' E 016°22'1 2.9
2018-Apr-18 05:59N 69°42' E 016°17'1 2.7
2018-Apr-18 05:30N 69°42' E 016°14'0 0.0
2018-Apr-18 05:00N 69°42' E 016°14'2 3.5
2018-Apr-18 04:30N 69°42' E 016°19'2 3.3
2018-Apr-18 04:00N 69°42' E 016°23'2 4.4
2018-Apr-18 03:30N 69°42' E 016°17'1 1.5
2018-Apr-18 03:00N 69°42' E 016°15'2 3.5
2018-Apr-18 02:30N 69°42' E 016°20'2 3.4
2018-Apr-18 02:00N 69°42' E 016°25'0 0.2
2018-Apr-18 01:29N 69°42' E 016°24'2 3.6
2018-Apr-18 00:59N 69°42' E 016°19'2 3.5
2018-Apr-18 00:29N 69°42' E 016°14'1 3.0
2018-Apr-18 00:00N 69°42' E 016°18'2 3.6
2018-Apr-17 23:30N 69°42' E 016°23'0 0.7
2018-Apr-17 23:00N 69°42' E 016°23'2 4.0
2018-Apr-17 22:28N 69°42' E 016°17'1 2.9
2018-Apr-17 22:00N 69°41' E 016°15'2 3.8
2018-Apr-17 21:30N 69°40' E 016°20'2 3.8
2018-Apr-17 21:00N 69°40' E 016°26'1 1.4
2018-Apr-17 20:30N 69°40' E 016°28'1 1.6
2018-Apr-17 20:00N 69°40' E 016°30'1 1.6
2018-Apr-17 19:30N 69°40' E 016°32'1 2.6
2018-Apr-17 19:00N 69°40' E 016°28'1 2.7
2018-Apr-17 18:30N 69°40' E 016°25'1 3.0
2018-Apr-17 18:00N 69°38' E 016°26'1 2.7
2018-Apr-17 17:30N 69°37' E 016°24'2 3.3
2018-Apr-17 16:59N 69°37' E 016°19'2 3.5
2018-Apr-17 16:30N 69°38' E 016°23'1 2.5
2018-Apr-17 16:00N 69°38' E 016°26'2 3.9
2018-Apr-17 15:30N 69°37' E 016°21'1 2.5
2018-Apr-17 15:00N 69°38' E 016°20'2 3.8
2018-Apr-17 14:30N 69°38' E 016°26'1 2.5
2018-Apr-17 13:59N 69°37' E 016°23'1 2.6
2018-Apr-17 13:30N 69°38' E 016°20'2 4.0
2018-Apr-17 13:00N 69°38' E 016°25'1 1.8
2018-Apr-17 12:30N 69°37' E 016°24'2 3.6
2018-Apr-17 12:00N 69°37' E 016°19'2 3.4
2018-Apr-17 11:30N 69°39' E 016°21'2 3.3
2018-Apr-17 10:59N 69°38' E 016°26'1 2.7
2018-Apr-17 10:30N 69°37' E 016°23'2 3.1
2018-Apr-17 10:00N 69°37' E 016°19'2 3.1
2018-Apr-17 09:30N 69°38' E 016°22'2 3.0
2018-Apr-17 09:00N 69°38' E 016°27'2 3.7
2018-Apr-17 08:30N 69°37' E 016°22'1 2.8
2018-Apr-17 08:00N 69°38' E 016°18'2 4.1
2018-Apr-17 07:30N 69°39' E 016°23'1 2.7
2018-Apr-17 06:59N 69°38' E 016°27'2 3.6
2018-Apr-17 06:30N 69°37' E 016°23'2 3.0
2018-Apr-17 06:00N 69°37' E 016°19'1 2.8
2018-Apr-17 05:29N 69°38' E 016°22'2 3.6
2018-Apr-17 05:00N 69°38' E 016°27'2 3.6
2018-Apr-17 04:30N 69°37' E 016°22'1 2.6
2018-Apr-17 03:59N 69°38' E 016°19'2 3.6
2018-Apr-17 03:28N 69°38' E 016°25'1 2.2
2018-Apr-17 03:00N 69°37' E 016°24'2 3.2
2018-Apr-17 02:30N 69°37' E 016°19'2 3.1
2018-Apr-17 02:00N 69°38' E 016°23'1 2.7
2018-Apr-17 01:29N 69°38' E 016°26'2 3.9
2018-Apr-17 01:00N 69°37' E 016°21'1 2.3
2018-Apr-17 00:29N 69°38' E 016°18'1 2.8
2018-Apr-16 23:59N 69°38' E 016°22'2 3.8
2018-Apr-16 23:30N 69°38' E 016°27'2 3.9
2018-Apr-16 23:00N 69°37' E 016°22'2 3.7
2018-Apr-16 22:30N 69°38' E 016°17'2 3.8
2018-Apr-16 22:00N 69°39' E 016°14'2 3.7
2018-Apr-16 21:30N 69°41' E 016°13'2 3.2
2018-Apr-16 21:00N 69°40' E 016°17'2 4.3
2018-Apr-16 20:30N 69°40' E 016°23'1 1.8
2018-Apr-16 20:00N 69°40' E 016°21'1 2.6
2018-Apr-16 19:30N 69°40' E 016°17'1 2.6
2018-Apr-16 19:00N 69°40' E 016°13'1 1.3
2018-Apr-16 18:30N 69°40' E 016°15'1 1.6
2018-Apr-16 17:59N 69°40' E 016°16'1 2.1
2018-Apr-16 17:30N 69°40' E 016°14'1 1.9
2018-Apr-16 16:59N 69°41' E 016°13'1 2.5
2018-Apr-16 16:30N 69°42' E 016°14'2 3.5
2018-Apr-16 16:00N 69°41' E 016°11'1 2.3
2018-Apr-16 15:30N 69°42' E 016°12'1 2.4
2018-Apr-16 15:00N 69°43' E 016°13'0 0.9
2018-Apr-16 14:30N 69°43' E 016°14'1 2.6
2018-Apr-16 14:00N 69°42' E 016°14'1 2.2
2018-Apr-16 13:30N 69°41' E 016°16'1 2.2
2018-Apr-16 13:00N 69°42' E 016°14'1 2.1
2018-Apr-16 12:30N 69°43' E 016°12'2 3.9
2018-Apr-16 12:00N 69°41' E 016°13'2 3.9
2018-Apr-16 11:30N 69°39' E 016°18'2 3.6
2018-Apr-16 10:59N 69°39' E 016°23'2 3.5
2018-Apr-16 10:30N 69°38' E 016°27'2 3.8
2018-Apr-16 10:00N 69°37' E 016°22'2 3.3
2018-Apr-16 09:29N 69°38' E 016°18'2 3.4
2018-Apr-16 09:00N 69°39' E 016°22'1 2.8
2018-Apr-16 08:30N 69°40' E 016°21'1 1.3
2018-Apr-16 08:00N 69°40' E 016°23'1 1.2
2018-Apr-16 07:30N 69°40' E 016°24'1 2.9
2018-Apr-16 07:00N 69°39' E 016°26'1 2.2
2018-Apr-16 06:30N 69°38' E 016°26'2 3.9
2018-Apr-16 06:00N 69°37' E 016°20'1 2.7
2018-Apr-16 05:30N 69°38' E 016°21'2 3.8
2018-Apr-16 04:59N 69°38' E 016°27'2 3.5
2018-Apr-16 04:30N 69°37' E 016°23'2 3.1
2018-Apr-16 04:00N 69°38' E 016°19'1 2.8
2018-Apr-16 03:29N 69°39' E 016°19'2 4.3
2018-Apr-16 03:00N 69°38' E 016°25'1 2.1
2018-Apr-16 02:30N 69°37' E 016°25'2 3.5
2018-Apr-16 02:00N 69°37' E 016°20'2 3.4
2018-Apr-16 01:30N 69°39' E 016°18'1 2.7
2018-Apr-16 00:59N 69°40' E 016°20'2 4.5
2018-Apr-16 00:30N 69°39' E 016°25'1 2.6
2018-Apr-16 00:00N 69°37' E 016°24'2 3.6
2018-Apr-15 23:30N 69°37' E 016°19'2 3.1
2018-Apr-15 23:00N 69°38' E 016°23'1 2.7
2018-Apr-15 22:29N 69°38' E 016°26'2 4.0
2018-Apr-15 22:00N 69°37' E 016°21'2 3.5
2018-Apr-15 21:30N 69°38' E 016°18'2 3.2
2018-Apr-15 21:00N 69°39' E 016°22'2 3.3
2018-Apr-15 20:27N 69°38' E 016°27'2 4.0
2018-Apr-15 19:59N 69°37' E 016°22'2 3.4
2018-Apr-15 19:30N 69°38' E 016°18'2 4.2
2018-Apr-15 19:00N 69°40' E 016°17'1 1.0
2018-Apr-15 18:30N 69°40' E 016°17'0 0.6
2018-Apr-15 18:00N 69°41' E 016°17'2 3.2
2018-Apr-15 17:28N 69°40' E 016°22'1 3.1
2018-Apr-15 17:00N 69°39' E 016°24'1 2.4
2018-Apr-15 16:30N 69°38' E 016°26'2 4.1
2018-Apr-15 16:00N 69°37' E 016°20'2 3.6
2018-Apr-15 15:29N 69°39' E 016°17'1 1.9
2018-Apr-15 15:00N 69°39' E 016°18'2 4.2
2018-Apr-15 14:30N 69°39' E 016°24'1 2.4
2018-Apr-15 14:00N 69°38' E 016°25'2 3.7
2018-Apr-15 13:28N 69°37' E 016°20'2 3.6
2018-Apr-15 13:00N 69°39' E 016°17'2 3.3
2018-Apr-15 12:30N 69°40' E 016°18'2 4.2
2018-Apr-15 12:00N 69°39' E 016°23'2 3.0
2018-Apr-15 11:30N 69°38' E 016°26'2 3.3
2018-Apr-15 10:59N 69°37' E 016°23'2 3.3
2018-Apr-15 10:30N 69°38' E 016°18'2 3.0
2018-Apr-15 09:58N 69°39' E 016°19'2 3.8
2018-Apr-15 09:30N 69°38' E 016°24'1 2.4
2018-Apr-15 09:00N 69°38' E 016°26'2 3.8
2018-Apr-15 08:30N 69°37' E 016°21'2 3.6
2018-Apr-15 08:00N 69°38' E 016°17'2 3.1
2018-Apr-15 07:30N 69°39' E 016°20'2 3.7
2018-Apr-15 07:00N 69°39' E 016°25'2 3.3
2018-Apr-15 06:29N 69°37' E 016°21'510.6
2018-Apr-15 05:59N 69°35' E 016°07'511.3
2018-Apr-15 05:30N 69°33' E 015°53'510.9
2018-Apr-15 05:00N 69°30' E 015°40'510.5
2018-Apr-15 04:30N 69°27' E 015°28'510.1
2018-Apr-15 04:00N 69°24' E 015°17'510.6
2018-Apr-15 03:30N 69°20' E 015°05'510.6
2018-Apr-15 03:00N 69°17' E 014°53'611.1
2018-Apr-15 02:29N 69°13' E 014°41'2 3.1
2018-Apr-15 02:00N 69°12' E 014°38'2 4.4
2018-Apr-15 01:30N 69°11' E 014°33'2 4.4
2018-Apr-15 01:00N 69°09' E 014°28'2 4.2
2018-Apr-15 00:30N 69°07' E 014°26'2 4.2
2018-Apr-15 00:00N 69°06' E 014°21'2 4.4
2018-Apr-14 23:30N 69°05' E 014°17'1 2.6
2018-Apr-14 23:00N 69°03' E 014°17'2 3.3
2018-Apr-14 22:29N 69°05' E 014°18'2 3.3
2018-Apr-14 22:00N 69°06' E 014°20'2 3.3
2018-Apr-14 21:30N 69°07' E 014°24'2 3.3
2018-Apr-14 21:00N 69°09' E 014°26'2 3.3
2018-Apr-14 20:30N 69°10' E 014°29'0 0.6
2018-Apr-14 19:59N 69°10' E 014°29'2 3.4
2018-Apr-14 19:30N 69°08' E 014°26'2 4.5
2018-Apr-14 19:00N 69°07' E 014°21'2 4.5
2018-Apr-14 18:29N 69°05' E 014°18'2 4.4
2018-Apr-14 18:00N 69°03' E 014°14'1 1.4
2018-Apr-14 17:30N 69°03' E 014°16'2 3.2
2018-Apr-14 16:59N 69°04' E 014°17'2 3.3
2018-Apr-14 16:30N 69°06' E 014°19'2 3.2
2018-Apr-14 15:58N 69°07' E 014°22'2 3.3
2018-Apr-14 15:29N 69°08' E 014°25'1 2.2
2018-Apr-14 15:00N 69°07' E 014°23'2 4.4
2018-Apr-14 14:30N 69°06' E 014°20'2 3.6
2018-Apr-14 14:00N 69°04' E 014°17'2 4.4
2018-Apr-14 13:30N 69°02' E 014°15'1 2.1
2018-Apr-14 13:00N 69°02' E 014°12'2 3.5
2018-Apr-14 12:29N 69°04' E 014°15'2 3.3
2018-Apr-14 12:00N 69°05' E 014°19'2 3.3
2018-Apr-14 11:30N 69°06' E 014°21'1 1.4
2018-Apr-14 11:00N 69°06' E 014°22'2 4.3
2018-Apr-14 10:30N 69°05' E 014°18'4 7.0
2018-Apr-14 10:00N 69°02' E 014°11'510.8
2018-Apr-14 09:30N 68°58' E 014°01'510.7
2018-Apr-14 09:00N 68°55' E 013°49'611.0
2018-Apr-14 08:30N 68°51' E 013°39'610.9
2018-Apr-14 07:59N 68°46' E 013°32'510.7
2018-Apr-14 07:30N 68°41' E 013°26'510.6
2018-Apr-14 07:00N 68°36' E 013°21'510.4
2018-Apr-14 06:29N 68°31' E 013°15'1 2.3
2018-Apr-14 06:00N 68°30' E 013°13'1 2.1
2018-Apr-14 05:30N 68°30' E 013°16'1 2.4
2018-Apr-14 05:00N 68°31' E 013°14'3 6.5
2018-Apr-14 04:30N 68°29' E 013°07'3 5.7
2018-Apr-14 04:00N 68°27' E 013°01'3 5.7
2018-Apr-14 03:30N 68°25' E 012°56'3 5.7
2018-Apr-14 03:00N 68°23' E 012°50'3 5.9
2018-Apr-14 02:30N 68°21' E 012°44'3 6.1
2018-Apr-14 01:58N 68°19' E 012°38'3 7.3
2018-Apr-14 01:30N 68°16' E 012°31'4 7.9
2018-Apr-14 01:00N 68°13' E 012°25'4 7.9
2018-Apr-14 00:30N 68°10' E 012°18'309 9.8
2018-Apr-12 17:01N 63°28' E 007°06'011.6
2018-Apr-12 17:00N 63°28' E 007°06'1 2.9
2018-Apr-12 16:30N 63°27' E 007°05'4 7.3
2018-Apr-12 16:00N 63°23' E 007°03'510.6
2018-Apr-12 15:29N 63°18' E 006°59'510.6
2018-Apr-12 14:59N 63°13' E 006°55'510.4
2018-Apr-12 14:30N 63°08' E 006°52'5 9.9
2018-Apr-12 14:00N 63°03' E 006°49'510.0
2018-Apr-12 13:30N 62°59' E 006°44'5 9.6
2018-Apr-12 13:00N 62°54' E 006°45'510.7
2018-Apr-12 12:30N 62°50' E 006°39'510.8
2018-Apr-12 12:00N 62°45' E 006°33'510.6
2018-Apr-12 11:30N 62°40' E 006°28'4 7.5
2018-Apr-12 10:58N 62°36' E 006°27'0 0.0
2018-Apr-12 10:27N 62°36' E 006°27'0 0.0
2018-Apr-12 10:00N 62°36' E 006°27'0 0.0
2018-Apr-12 09:30N 62°36' E 006°27'0 0.0
2018-Apr-12 09:00N 62°36' E 006°27'0 0.0
2018-Apr-12 08:29N 62°36' E 006°27'0 0.0
2018-Apr-12 07:59N 62°36' E 006°27'0 0.0
2018-Apr-12 07:30N 62°36' E 006°27'0 0.0
2018-Apr-12 07:00N 62°36' E 006°27'0 0.0
2018-Apr-12 06:30N 62°36' E 006°27'0 0.0
2018-Apr-12 05:59N 62°36' E 006°27'0 0.0
2018-Apr-12 05:30N 62°36' E 006°27'1 2.3
2018-Apr-12 04:59N 62°37' E 006°25'510.1
2018-Apr-12 04:30N 62°35' E 006°15'510.3
2018-Apr-12 04:00N 62°31' E 006°09'5 9.7
2018-Apr-12 03:30N 62°27' E 006°02'2 4.9
2018-Apr-12 03:00N 62°27' E 005°57'1 2.0
2018-Apr-12 02:30N 62°27' E 005°55'  

Dump ship's entire track history